Archival Weather

Heathrow

London, United Kingdom (EGLL)

Report from: Monday, July 18, 2022 4:50 AM BST
Current time: Tuesday, July 16, 2024 5:18 PM BST

Current weather – Weather history – Daily summaries
Weather forecast

Temperature19.0°C (66.2°F)
Dew point9.0°C (48.2°F)
Winds 2 kts (1 m/s, 2.3 mph) East-Northeast (70°)
Visibility6.2 mi. (10 km)
Clouds Sky clear
Altimeter30.15 in.Hg (1021 mB)
Relative humidity52 %
Density altitude373 ft. (114 m)
Remarks Fully automated report
No clouds detected
No significant changes expected in the next two hours
Flight conditions Visual Meteorological Conditions
Raw dataEGLL 180350Z AUTO 07002KT 9999 NCD 19/09 Q1021 NOSIG
An error has occurred. This application may no longer respond until reloaded. Reload 🗙